To NAV CANADA Home Page Login to a new session Search on AWWS site Feedback and Comments Disclaimer Vers la page française équivalente Tips FAQ What's new on the site To the Forecasts and Observations / NOTAM section To "File a Flight Plan" website Publications and other links Update of the User's profile FIC Telephone Numbers My Weather Data Folder Route Weather Data Regional Weather Data Local Weather Data To the Forecasts and Observations / NOTAM section
Request Generated 10/18/2017 at 03:59:00 UTC . Weather information available at that time is displayed.

METAR/TAF

If you find any discrepancies between the coded METAR/TAF and the plain language METAR/TAF please use the coded METAR/TAF. LWIS bulletins are not decoded in plain language.

CALGARY INTL/AB    

METAR CYYC 180300Z 35008KT 10SM SCT033 BKN120 03/00 A2965 RMK SC3AC2 PRESRR SLP069=
METAR
LOCATION
CYYC - CALGARY INTL/AB
DATE - TIME
18 OCTOBER 2017 - 0300 UTC
WIND
350 TRUE @ 8  KNOTS
VISIBILITY
10 STAT.  MILES
RUNWAY VISUAL RANGE
WEATHER
CLOUDINESS
SCATTERED CLOUDS (3/8 - 4/8) 3300  FT
BROKEN CLOUDS (5/8 - 7/8) 12000  FT
TEMP / DEWPOINT
3 C / 0 C
ALTIMETER
29.65 IN HG
RECENT WEATHER
WIND SHEAR

METAR CYYC 180200Z 35015KT 7SM BKN019 BKN029 03/01 A2957 RMK SC5SC2 CVCTV CLD EMBD PRESRR SLP043=
METAR
LOCATION
CYYC - CALGARY INTL/AB
DATE - TIME
18 OCTOBER 2017 - 0200 UTC
WIND
350 TRUE @ 15  KNOTS
VISIBILITY
7 STAT.  MILES
RUNWAY VISUAL RANGE
WEATHER
CLOUDINESS
BROKEN CLOUDS (5/8 - 7/8) 1900  FT
BROKEN CLOUDS (5/8 - 7/8) 2900  FT
TEMP / DEWPOINT
3 C / 1 C
ALTIMETER
29.57 IN HG
RECENT WEATHER
WIND SHEAR

SPECI CYYC 180142Z 34010G15KT 10SM VCSH FEW012TCU SCT039 BKN085 03/01 A2955 RMK TCU1SC4AC2 TCU TR SH N-E + W-NW / TCU NE PRESRR SLP037=
SPECI
LOCATION
CYYC - CALGARY INTL/AB
DATE - TIME
18 OCTOBER 2017 - 0142 UTC
WIND
340 TRUE @ 10  KNOTS
GUSTS
15 KNOTS
VISIBILITY
10 STAT.  MILES
RUNWAY VISUAL RANGE
WEATHER
IN THE VICINITY
SHOWER
CLOUDINESS
FEW CLOUDS (1/8 - 2/8) 1200  FT
TOWERING CUMULUS
SCATTERED CLOUDS (3/8 - 4/8) 3900  FT
BROKEN CLOUDS (5/8 - 7/8) 8500  FT
TEMP / DEWPOINT
3 C / 1 C
ALTIMETER
29.55 IN HG
RECENT WEATHER
WIND SHEAR

METAR CYYC 180100Z 32018G23KT 10SM -SHRA FEW015 BKN032TCU 03/01 A2952 RMK CF2TCU5 SLP026=
METAR
LOCATION
CYYC - CALGARY INTL/AB
DATE - TIME
18 OCTOBER 2017 - 0100 UTC
WIND
320 TRUE @ 18  KNOTS
GUSTS
23 KNOTS
VISIBILITY
10 STAT.  MILES
RUNWAY VISUAL RANGE
WEATHER
LIGHT RAIN SHOWER
CLOUDINESS
FEW CLOUDS (1/8 - 2/8) 1500  FT
BROKEN CLOUDS (5/8 - 7/8) 3200  FT
TOWERING CUMULUS
TEMP / DEWPOINT
3 C / 1 C
ALTIMETER
29.52 IN HG
RECENT WEATHER
WIND SHEAR

TAF CYYC 180238Z 1803/1824 34012G25KT P6SM SCT020 BKN030 TEMPO 1803/1806 BKN020 BKN030 FM180600 28012KT P6SM SKC BECMG 1810/1812 24005KT FM181500 18010KT P6SM BKN200 BECMG 1822/1824 22012KT RMK NXT FCST BY 180600Z=
TAF
LOCATION

CYYC - CALGARY INTL/AB
VALIDITY [UTC]
18 OCT - 0238 to
19 OCT - 0000
 
TIMES
[UTC]
WIND
[DEGREES TRUE]
VISIBILITY
[STAT. MILES]
WEATHER
CLOUDINESS
[FEET AGL]
 
18 OCT - 0300 to
18 OCT - 0600
340 @ 12 KNOTS
GUSTS 25 KNOTS
6+
NIL
2000 SCATTERED
3000 BROKEN
TEMPORARY CHANGES
18 OCT - 0300 to
18 OCT - 0600
 
 
 
2000 BROKEN
3000 BROKEN
 
18 OCT - 0600 to
18 OCT - 1500
280 @ 12 KNOTS
6+
NIL
CLEAR SKY
BECOMING
18 OCT - 1000 to
18 OCT - 1200
240 @ 5 KNOTS
 
 
 
 
18 OCT - 1500 to
19 OCT - 0000
180 @ 10 KNOTS
6+
NIL
20000 BROKEN
BECOMING
18 OCT - 2200 to
19 OCT - 0000
220 @ 12 KNOTS
 
 
 
REMARKS
THE NEXT FORECAST WILL BE ISSUED BY 0600 UTC ON DAY 18


Your time UTC time
Weather data provided by Environment Canada and NAV CANADA